createdAt,value
2022-11-30T00:00:11.060Z,10.74
2022-11-30T00:01:18.090Z,9.84
2022-11-30T00:02:11.228Z,10.26
2022-11-30T00:03:11.126Z,9.92
2022-11-30T00:04:11.061Z,9.90
2022-11-30T00:05:11.071Z,10.84
2022-11-30T00:06:11.059Z,11.68
2022-11-30T00:07:11.062Z,12.36
2022-11-30T00:08:11.069Z,10.68
2022-11-30T00:09:11.062Z,9.92
2022-11-30T00:10:11.068Z,12.80
2022-11-30T00:11:14.065Z,12.32
2022-11-30T00:12:11.061Z,13.24
2022-11-30T00:13:11.061Z,10.90
2022-11-30T00:14:11.061Z,10.60
2022-11-30T00:15:11.063Z,11.78
2022-11-30T00:16:11.062Z,12.22
2022-11-30T00:17:11.060Z,12.54
2022-11-30T00:18:11.064Z,11.50
2022-11-30T00:19:11.064Z,12.66
2022-11-30T00:20:11.064Z,12.04
2022-11-30T00:21:12.070Z,12.64
2022-11-30T00:22:11.068Z,13.56
2022-11-30T00:23:11.064Z,10.96
2022-11-30T00:24:11.070Z,12.96
2022-11-30T00:25:11.060Z,12.70
2022-11-30T00:26:12.069Z,12.68
2022-11-30T00:27:11.069Z,14.14
2022-11-30T00:28:11.061Z,13.40
2022-11-30T00:29:11.069Z,19.58
2022-11-30T00:30:11.069Z,18.18
2022-11-30T00:31:12.091Z,14.10
2022-11-30T00:32:11.060Z,17.12
2022-11-30T00:33:11.071Z,13.02
2022-11-30T00:34:11.065Z,14.68
2022-11-30T00:35:11.059Z,13.22
2022-11-30T00:36:12.074Z,12.72
2022-11-30T00:37:11.065Z,14.42
2022-11-30T00:38:11.057Z,13.64
2022-11-30T00:39:11.070Z,14.26
2022-11-30T00:40:11.062Z,12.44
2022-11-30T00:41:11.058Z,14.12
2022-11-30T00:42:11.070Z,12.64
2022-11-30T00:43:11.062Z,12.10
2022-11-30T00:44:11.060Z,14.24
2022-11-30T00:45:11.066Z,14.26
2022-11-30T00:46:11.176Z,11.80
2022-11-30T00:47:11.062Z,13.92
2022-11-30T00:48:11.062Z,14.00
2022-11-30T00:49:11.064Z,13.10
2022-11-30T00:50:11.064Z,13.12
2022-11-30T00:51:11.063Z,13.92
2022-11-30T00:52:11.064Z,15.08
2022-11-30T00:53:11.064Z,14.02
2022-11-30T00:54:11.064Z,13.46
2022-11-30T00:55:11.064Z,15.02
2022-11-30T00:56:11.071Z,14.22
2022-11-30T00:57:11.062Z,13.78
2022-11-30T00:58:11.065Z,12.68
2022-11-30T00:59:11.061Z,13.14
2022-11-30T01:00:11.063Z,14.48
2022-11-30T01:01:11.134Z,13.16
2022-11-30T01:02:11.105Z,15.64
2022-11-30T01:03:11.066Z,13.76
2022-11-30T01:04:11.071Z,13.36
2022-11-30T01:05:11.062Z,13.40
2022-11-30T01:06:11.064Z,14.46
2022-11-30T01:07:11.073Z,13.18
2022-11-30T01:08:11.063Z,12.96
2022-11-30T01:09:11.067Z,14.48
2022-11-30T01:10:11.073Z,13.88
2022-11-30T01:11:14.078Z,13.84
2022-11-30T01:12:11.068Z,14.42
2022-11-30T01:13:11.132Z,12.74
2022-11-30T01:14:11.064Z,14.18
2022-11-30T01:15:11.069Z,14.80
2022-11-30T01:16:15.129Z,14.96
2022-11-30T01:17:11.066Z,14.26
2022-11-30T01:18:11.060Z,14.18
2022-11-30T01:19:11.067Z,11.50
2022-11-30T01:20:11.069Z,12.44
2022-11-30T01:21:12.066Z,13.26
2022-11-30T01:22:11.064Z,11.96
2022-11-30T01:23:11.066Z,13.44
2022-11-30T01:24:11.065Z,12.22
2022-11-30T01:25:11.069Z,11.68
2022-11-30T01:26:11.069Z,13.24
2022-11-30T01:27:11.064Z,14.32
2022-11-30T01:28:11.066Z,13.66
2022-11-30T01:29:11.075Z,14.08
2022-11-30T01:30:11.065Z,13.52
2022-11-30T01:31:11.169Z,13.94
2022-11-30T01:32:11.070Z,14.60
2022-11-30T01:33:11.065Z,13.44
2022-11-30T01:34:11.067Z,13.36
2022-11-30T01:35:11.068Z,13.84
2022-11-30T01:36:15.065Z,13.42
2022-11-30T01:37:11.070Z,13.48
2022-11-30T01:38:11.074Z,11.72
2022-11-30T01:39:11.066Z,14.44
2022-11-30T01:40:11.067Z,12.82
2022-11-30T01:41:11.076Z,12.62
2022-11-30T01:42:15.068Z,12.94
2022-11-30T01:43:13.070Z,13.84
2022-11-30T01:44:20.354Z,12.94
2022-11-30T01:45:14.067Z,12.52
2022-11-30T01:46:19.120Z,13.30
2022-11-30T01:47:13.066Z,13.40
2022-11-30T01:48:11.069Z,12.94
2022-11-30T01:49:22.067Z,11.94
2022-11-30T01:50:19.067Z,10.86
2022-11-30T01:51:11.067Z,12.84
2022-11-30T01:52:19.069Z,12.54
2022-11-30T01:53:11.076Z,11.56
2022-11-30T01:54:11.067Z,11.92
2022-11-30T01:55:19.069Z,10.82
2022-11-30T01:56:11.068Z,12.68
2022-11-30T01:57:20.068Z,11.00
2022-11-30T01:58:16.066Z,10.90
2022-11-30T01:59:11.068Z,10.56
2022-11-30T02:00:13.067Z,10.60
2022-11-30T02:01:11.115Z,12.64
2022-11-30T02:02:11.100Z,13.08
2022-11-30T02:03:19.068Z,11.56
2022-11-30T02:04:17.080Z,10.10
2022-11-30T02:05:11.068Z,12.62
2022-11-30T02:06:11.068Z,11.62
2022-11-30T02:07:11.135Z,12.58
2022-11-30T02:08:11.268Z,10.02
2022-11-30T02:09:11.070Z,11.32
2022-11-30T02:10:18.071Z,12.28
2022-11-30T02:11:14.076Z,11.20
2022-11-30T02:12:15.066Z,12.70
2022-11-30T02:13:19.083Z,12.88
2022-11-30T02:14:19.072Z,11.92
2022-11-30T02:15:18.071Z,13.54
2022-11-30T02:16:19.067Z,14.72
2022-11-30T02:17:21.064Z,14.12
2022-11-30T02:18:22.069Z,11.84
2022-11-30T02:19:19.071Z,11.70
2022-11-30T02:20:19.075Z,13.40
2022-11-30T02:21:22.070Z,13.80
2022-11-30T02:22:19.068Z,13.16
2022-11-30T02:23:19.071Z,12.88
2022-11-30T02:24:22.075Z,13.26
2022-11-30T02:25:22.078Z,14.18
2022-11-30T02:26:19.070Z,13.98
2022-11-30T02:27:22.067Z,14.04
2022-11-30T02:28:19.072Z,14.44
2022-11-30T02:29:19.070Z,14.04
2022-11-30T02:30:15.071Z,14.06
2022-11-30T02:31:15.117Z,17.60
2022-11-30T02:32:16.071Z,16.40
2022-11-30T02:33:19.070Z,12.66
2022-11-30T02:34:12.072Z,12.50
2022-11-30T02:35:11.071Z,14.54
2022-11-30T02:36:11.067Z,12.58
2022-11-30T02:37:12.071Z,14.36
2022-11-30T02:38:11.069Z,13.18
2022-11-30T02:39:11.069Z,14.84
2022-11-30T02:40:15.069Z,13.24
2022-11-30T02:41:11.077Z,13.54
2022-11-30T02:42:14.071Z,13.18
2022-11-30T02:43:11.066Z,13.30
2022-11-30T02:44:12.082Z,14.20
2022-11-30T02:45:11.070Z,14.80
2022-11-30T02:46:19.118Z,14.10
2022-11-30T02:47:19.069Z,15.24
2022-11-30T02:48:11.071Z,13.54
2022-11-30T02:49:19.066Z,13.66
2022-11-30T02:50:19.056Z,14.02
2022-11-30T02:51:12.062Z,13.92
2022-11-30T02:52:11.070Z,14.64
2022-11-30T02:53:11.062Z,13.48
2022-11-30T02:54:11.072Z,13.66
2022-11-30T02:55:14.071Z,13.34
2022-11-30T02:56:11.064Z,13.16
2022-11-30T02:57:11.061Z,13.36
2022-11-30T02:58:11.061Z,14.76
2022-11-30T02:59:11.061Z,11.74
2022-11-30T03:00:11.063Z,14.18
2022-11-30T03:01:11.088Z,15.14
2022-11-30T03:02:11.070Z,14.90
2022-11-30T03:03:11.060Z,13.00
2022-11-30T03:04:11.062Z,13.14
2022-11-30T03:05:11.070Z,13.78
2022-11-30T03:06:11.062Z,14.20
2022-11-30T03:07:11.063Z,14.36
2022-11-30T03:08:11.071Z,14.68
2022-11-30T03:09:11.066Z,12.70
2022-11-30T03:10:11.068Z,12.26
2022-11-30T03:11:11.070Z,13.56
2022-11-30T03:12:11.066Z,12.00
2022-11-30T03:13:11.060Z,11.80
2022-11-30T03:14:11.065Z,12.06
2022-11-30T03:15:11.064Z,12.70
2022-11-30T03:16:11.183Z,11.88
2022-11-30T03:17:11.066Z,11.22
2022-11-30T03:18:11.065Z,14.20
2022-11-30T03:19:11.060Z,11.24
2022-11-30T03:20:11.066Z,11.54
2022-11-30T03:21:11.067Z,12.62
2022-11-30T03:22:11.064Z,11.82
2022-11-30T03:23:11.064Z,11.56
2022-11-30T03:24:11.064Z,11.58
2022-11-30T03:25:11.065Z,11.12
2022-11-30T03:26:11.063Z,13.60
2022-11-30T03:27:11.067Z,13.26
2022-11-30T03:28:11.064Z,13.40
2022-11-30T03:29:11.063Z,11.50
2022-11-30T03:30:11.071Z,12.08
2022-11-30T03:31:12.166Z,12.84
2022-11-30T03:32:11.067Z,13.70
2022-11-30T03:33:11.070Z,12.76
2022-11-30T03:34:11.066Z,13.34
2022-11-30T03:35:11.061Z,13.52
2022-11-30T03:36:11.068Z,15.28
2022-11-30T03:37:11.065Z,14.64
2022-11-30T03:38:11.059Z,14.96
2022-11-30T03:39:11.068Z,12.16
2022-11-30T03:40:11.065Z,13.72
2022-11-30T03:41:12.071Z,9.14
2022-11-30T03:42:11.068Z,10.66
2022-11-30T03:43:11.068Z,11.36
2022-11-30T03:44:11.064Z,12.40
2022-11-30T03:45:11.066Z,12.24
2022-11-30T03:46:11.144Z,10.20
2022-11-30T03:47:11.065Z,13.44
2022-11-30T03:48:11.065Z,13.90
2022-11-30T03:49:11.073Z,12.98
2022-11-30T03:50:11.064Z,12.88
2022-11-30T03:51:11.070Z,12.38
2022-11-30T03:52:11.072Z,13.96
2022-11-30T03:53:11.064Z,13.32
2022-11-30T03:54:11.064Z,13.68
2022-11-30T03:55:11.068Z,13.40
2022-11-30T03:56:11.066Z,13.18
2022-11-30T03:57:11.060Z,11.96
2022-11-30T03:58:11.075Z,12.78
2022-11-30T03:59:11.069Z,13.50
2022-11-30T04:00:11.063Z,14.68
2022-11-30T04:01:15.074Z,15.26
2022-11-30T04:02:11.118Z,14.14
2022-11-30T04:03:11.092Z,15.24
2022-11-30T04:04:11.067Z,13.44
2022-11-30T04:05:11.068Z,13.36
2022-11-30T04:06:11.065Z,14.04
2022-11-30T04:07:11.068Z,14.26
2022-11-30T04:08:11.068Z,12.58
2022-11-30T04:09:11.066Z,13.76
2022-11-30T04:10:11.066Z,15.02
2022-11-30T04:11:11.074Z,15.00
2022-11-30T04:12:11.066Z,15.24
2022-11-30T04:13:11.070Z,15.50
2022-11-30T04:14:11.075Z,15.40
2022-11-30T04:15:11.067Z,14.10
2022-11-30T04:16:11.147Z,13.40
2022-11-30T04:17:11.083Z,14.64
2022-11-30T04:18:11.069Z,14.52
2022-11-30T04:19:11.066Z,14.70
2022-11-30T04:20:11.073Z,14.40
2022-11-30T04:21:11.064Z,16.76
2022-11-30T04:22:11.072Z,16.64
2022-11-30T04:23:11.075Z,16.08
2022-11-30T04:24:11.067Z,14.22
2022-11-30T04:25:11.070Z,15.00
2022-11-30T04:26:12.079Z,16.26
2022-11-30T04:27:11.068Z,14.10
2022-11-30T04:28:11.070Z,13.90
2022-11-30T04:29:11.075Z,13.74
2022-11-30T04:30:11.067Z,13.84
2022-11-30T04:31:11.109Z,15.34
2022-11-30T04:32:11.076Z,13.76
2022-11-30T04:33:11.068Z,16.80
2022-11-30T04:34:11.069Z,16.66
2022-11-30T04:35:11.075Z,15.84
2022-11-30T04:36:18.065Z,16.16
2022-11-30T04:37:11.063Z,15.74
2022-11-30T04:38:11.070Z,16.36
2022-11-30T04:39:11.067Z,14.72
2022-11-30T04:40:11.064Z,14.80
2022-11-30T04:41:11.071Z,19.20
2022-11-30T04:42:11.068Z,16.52
2022-11-30T04:43:11.067Z,16.60
2022-11-30T04:44:11.067Z,16.76
2022-11-30T04:45:11.070Z,17.22
2022-11-30T04:46:11.170Z,16.86
2022-11-30T04:47:11.068Z,17.46
2022-11-30T04:48:11.070Z,17.84
2022-11-30T04:49:11.069Z,19.74
2022-11-30T04:50:11.070Z,18.22
2022-11-30T04:51:11.076Z,15.22
2022-11-30T04:52:11.067Z,15.98
2022-11-30T04:53:11.069Z,15.76
2022-11-30T04:54:11.078Z,18.76
2022-11-30T04:55:11.067Z,17.44
2022-11-30T04:56:11.075Z,16.02
2022-11-30T04:57:11.075Z,16.88
2022-11-30T04:58:11.067Z,17.60
2022-11-30T04:59:11.071Z,12.70
2022-11-30T05:00:11.077Z,13.98
2022-11-30T05:01:11.073Z,16.06
2022-11-30T05:02:11.064Z,17.78
2022-11-30T05:03:11.072Z,15.52
2022-11-30T05:04:11.097Z,14.34
2022-11-30T05:05:11.066Z,15.04
2022-11-30T05:06:11.073Z,15.90
2022-11-30T05:07:11.069Z,18.88
2022-11-30T05:08:11.071Z,15.40
2022-11-30T05:09:11.068Z,16.60
2022-11-30T05:10:11.070Z,19.74
2022-11-30T05:11:11.069Z,18.22
2022-11-30T05:12:11.070Z,17.40
2022-11-30T05:13:11.072Z,17.46
2022-11-30T05:14:11.069Z,18.50
2022-11-30T05:15:11.070Z,16.80
2022-11-30T05:16:11.130Z,16.28
2022-11-30T05:17:11.068Z,17.30
2022-11-30T05:18:11.071Z,15.34
2022-11-30T05:19:11.078Z,16.64
2022-11-30T05:20:11.068Z,16.02
2022-11-30T05:21:11.071Z,19.40
2022-11-30T05:22:11.082Z,18.26
2022-11-30T05:23:11.068Z,17.64
2022-11-30T05:24:11.074Z,18.70
2022-11-30T05:25:11.077Z,16.48
2022-11-30T05:26:11.070Z,16.70
2022-11-30T05:27:15.342Z,18.56
2022-11-30T05:28:13.098Z,19.48
2022-11-30T05:29:11.070Z,18.98
2022-11-30T05:30:11.071Z,17.06
2022-11-30T05:31:11.154Z,17.32
2022-11-30T05:32:11.074Z,17.08
2022-11-30T05:33:11.070Z,18.00
2022-11-30T05:34:11.071Z,18.42
2022-11-30T05:35:11.075Z,18.88
2022-11-30T05:36:11.196Z,18.00
2022-11-30T05:37:11.071Z,18.54
2022-11-30T05:38:11.073Z,16.36
2022-11-30T05:39:11.069Z,17.76
2022-11-30T05:40:11.074Z,17.10
2022-11-30T05:41:11.078Z,15.18
2022-11-30T05:42:11.073Z,18.46
2022-11-30T05:43:11.076Z,18.52
2022-11-30T05:44:11.080Z,17.02
2022-11-30T05:45:11.075Z,16.72
2022-11-30T05:46:11.074Z,16.80
2022-11-30T05:47:11.150Z,19.26
2022-11-30T05:48:11.058Z,15.78
2022-11-30T05:49:11.061Z,17.44
2022-11-30T05:50:11.065Z,18.10
2022-11-30T05:51:14.062Z,22.04
2022-11-30T05:52:11.057Z,16.42
2022-11-30T05:53:11.064Z,17.80
2022-11-30T05:54:11.060Z,17.20
2022-11-30T05:55:11.058Z,14.84
2022-11-30T05:56:12.058Z,16.10
2022-11-30T05:57:11.061Z,15.40
2022-11-30T05:58:11.057Z,15.28
2022-11-30T05:59:11.061Z,14.92
2022-11-30T06:00:11.062Z,14.74
2022-11-30T06:01:15.056Z,16.26
2022-11-30T06:02:11.194Z,14.78
2022-11-30T06:03:11.162Z,14.40
2022-11-30T06:04:11.065Z,18.04
2022-11-30T06:05:11.054Z,16.96
2022-11-30T06:06:11.068Z,17.46
2022-11-30T06:07:11.060Z,16.00
2022-11-30T06:08:11.056Z,15.72
2022-11-30T06:09:11.062Z,18.12
2022-11-30T06:10:11.062Z,15.94
2022-11-30T06:11:11.053Z,18.26
2022-11-30T06:12:11.061Z,17.72
2022-11-30T06:13:11.060Z,18.74
2022-11-30T06:14:11.059Z,18.10
2022-11-30T06:15:11.060Z,15.00
2022-11-30T06:16:11.144Z,17.12
2022-11-30T06:17:11.060Z,19.26
2022-11-30T06:18:11.062Z,16.80
2022-11-30T06:19:11.061Z,14.58
2022-11-30T06:20:11.059Z,18.02
2022-11-30T06:21:12.059Z,15.90
2022-11-30T06:22:11.061Z,16.36
2022-11-30T06:23:11.058Z,15.76
2022-11-30T06:24:11.060Z,15.62
2022-11-30T06:25:11.068Z,17.16
2022-11-30T06:26:11.059Z,16.08
2022-11-30T06:27:11.060Z,16.54
2022-11-30T06:28:11.069Z,15.84
2022-11-30T06:29:11.060Z,17.14
2022-11-30T06:30:11.063Z,16.22
2022-11-30T06:31:11.116Z,15.90
2022-11-30T06:32:11.061Z,16.94
2022-11-30T06:33:11.056Z,17.28
2022-11-30T06:34:11.064Z,17.62
2022-11-30T06:35:11.062Z,16.02
2022-11-30T06:36:11.063Z,17.52
2022-11-30T06:37:11.066Z,16.58
2022-11-30T06:38:11.065Z,17.94
2022-11-30T06:39:11.060Z,14.06
2022-11-30T06:40:11.064Z,16.58
2022-11-30T06:41:11.072Z,17.94
2022-11-30T06:42:11.060Z,17.44
2022-11-30T06:43:11.064Z,17.20
2022-11-30T06:44:12.069Z,17.96
2022-11-30T06:45:11.063Z,17.70
2022-11-30T06:46:11.266Z,17.82
2022-11-30T06:47:11.064Z,17.94
2022-11-30T06:48:11.063Z,17.02
2022-11-30T06:49:11.061Z,17.44
2022-11-30T06:50:11.062Z,16.30
2022-11-30T06:51:11.070Z,18.26
2022-11-30T06:52:11.061Z,17.24
2022-11-30T06:53:11.061Z,17.44
2022-11-30T06:54:11.063Z,18.06
2022-11-30T06:55:11.062Z,18.00
2022-11-30T06:56:11.163Z,16.32
2022-11-30T06:57:11.063Z,16.86
2022-11-30T06:58:11.068Z,18.40
2022-11-30T06:59:11.061Z,16.74
2022-11-30T07:00:11.064Z,15.76
2022-11-30T07:01:12.093Z,15.58
2022-11-30T07:02:17.423Z,16.78
2022-11-30T07:03:13.105Z,15.76
2022-11-30T07:04:11.083Z,15.88
2022-11-30T07:05:11.067Z,16.50
2022-11-30T07:06:11.072Z,14.76
2022-11-30T07:07:11.062Z,15.86
2022-11-30T07:08:11.068Z,16.10
2022-11-30T07:09:11.072Z,15.62
2022-11-30T07:10:13.791Z,15.52
2022-11-30T07:11:13.053Z,16.40
2022-11-30T07:12:11.070Z,16.88
2022-11-30T07:13:15.064Z,16.32
2022-11-30T07:14:11.065Z,16.28
2022-11-30T07:15:11.065Z,15.54
2022-11-30T07:16:11.161Z,16.46
2022-11-30T07:17:11.063Z,15.76
2022-11-30T07:18:11.064Z,15.58
2022-11-30T07:19:11.071Z,13.98
2022-11-30T07:20:11.062Z,15.96
2022-11-30T07:21:11.068Z,13.80
2022-11-30T07:22:11.072Z,15.12
2022-11-30T07:23:17.065Z,13.36
2022-11-30T07:24:15.063Z,14.58
2022-11-30T07:25:15.067Z,15.48
2022-11-30T07:26:11.072Z,15.08
2022-11-30T07:27:11.065Z,15.08
2022-11-30T07:28:12.060Z,14.90
2022-11-30T07:29:11.064Z,16.32
2022-11-30T07:30:11.067Z,14.88
2022-11-30T07:31:19.102Z,14.46
2022-11-30T07:32:11.169Z,14.34
2022-11-30T07:33:11.072Z,14.40
2022-11-30T07:34:11.064Z,15.64
2022-11-30T07:35:11.067Z,15.16
2022-11-30T07:36:11.072Z,13.04
2022-11-30T07:37:11.064Z,14.24
2022-11-30T07:38:11.068Z,17.46
2022-11-30T07:39:11.073Z,11.24
2022-11-30T07:40:11.067Z,13.92
2022-11-30T07:41:11.062Z,12.36
2022-11-30T07:42:11.074Z,12.42
2022-11-30T07:43:11.067Z,13.54
2022-11-30T07:44:11.062Z,13.64
2022-11-30T07:45:11.069Z,15.18
2022-11-30T07:46:12.112Z,13.74
2022-11-30T07:47:11.065Z,15.94
2022-11-30T07:48:11.067Z,14.54
2022-11-30T07:49:11.067Z,13.94
2022-11-30T07:50:11.066Z,14.46
2022-11-30T07:51:13.072Z,13.88
2022-11-30T07:52:11.074Z,14.18
2022-11-30T07:53:11.064Z,15.50
2022-11-30T07:54:11.070Z,14.80
2022-11-30T07:55:11.070Z,14.82
2022-11-30T07:56:11.065Z,14.26
2022-11-30T07:57:11.063Z,12.16
2022-11-30T07:58:16.975Z,15.18
2022-11-30T07:59:13.063Z,13.60
2022-11-30T08:00:11.068Z,13.88
2022-11-30T08:01:12.202Z,13.64
2022-11-30T08:02:11.183Z,12.10
2022-11-30T08:03:11.066Z,13.00
2022-11-30T08:04:11.114Z,15.04
2022-11-30T08:05:11.074Z,15.06
2022-11-30T08:06:11.066Z,14.04
2022-11-30T08:07:11.066Z,14.62
2022-11-30T08:08:11.074Z,12.76
2022-11-30T08:09:17.805Z,16.36
2022-11-30T08:10:13.083Z,14.92
2022-11-30T08:11:11.067Z,15.50
2022-11-30T08:12:11.076Z,15.44
2022-11-30T08:13:11.066Z,15.68
2022-11-30T08:14:11.071Z,16.66
2022-11-30T08:15:19.933Z,15.68
2022-11-30T08:16:18.148Z,15.92
2022-11-30T08:17:11.068Z,17.64
2022-11-30T08:18:11.070Z,15.04
2022-11-30T08:19:11.077Z,18.20
2022-11-30T08:20:11.066Z,18.68
2022-11-30T08:21:11.073Z,14.88
2022-11-30T08:22:11.070Z,14.52
2022-11-30T08:23:11.067Z,18.64
2022-11-30T08:24:13.149Z,14.78
2022-11-30T08:25:11.077Z,16.90
2022-11-30T08:26:19.070Z,17.72
2022-11-30T08:27:11.065Z,14.18
2022-11-30T08:28:11.071Z,16.94
2022-11-30T08:29:11.072Z,19.68
2022-11-30T08:30:11.066Z,17.32
2022-11-30T08:31:14.150Z,16.86
2022-11-30T08:32:11.069Z,17.88
2022-11-30T08:33:11.070Z,15.86
2022-11-30T08:34:12.072Z,17.04
2022-11-30T08:35:11.074Z,17.36
2022-11-30T08:36:15.069Z,19.06
2022-11-30T08:37:11.071Z,16.08
2022-11-30T08:38:11.077Z,19.42
2022-11-30T08:39:11.070Z,16.40
2022-11-30T08:40:11.066Z,16.82
2022-11-30T08:41:11.077Z,18.04
2022-11-30T08:42:11.071Z,17.18
2022-11-30T08:43:11.066Z,17.28
2022-11-30T08:44:11.101Z,16.88
2022-11-30T08:45:11.071Z,16.68
2022-11-30T08:46:35.144Z,14.30
2022-11-30T08:47:13.101Z,18.68
2022-11-30T08:48:11.065Z,17.32
2022-11-30T08:49:21.663Z,18.00
2022-11-30T08:50:13.019Z,18.22
2022-11-30T08:51:12.062Z,18.58
2022-11-30T08:52:18.441Z,17.24
2022-11-30T08:53:13.038Z,17.60
2022-11-30T08:54:11.057Z,17.34
2022-11-30T08:55:11.059Z,17.06
2022-11-30T08:56:12.056Z,19.48
2022-11-30T08:57:11.061Z,18.46
2022-11-30T08:58:11.067Z,17.16
2022-11-30T08:59:11.060Z,17.22
2022-11-30T09:00:11.062Z,17.14
2022-11-30T09:01:15.067Z,17.70
2022-11-30T09:02:13.159Z,17.56
2022-11-30T09:03:11.056Z,20.16
2022-11-30T09:04:11.067Z,19.06
2022-11-30T09:05:11.351Z,16.60
2022-11-30T09:06:12.056Z,18.10
2022-11-30T09:07:11.063Z,18.10
2022-11-30T09:08:11.059Z,18.28
2022-11-30T09:09:11.072Z,18.58
2022-11-30T09:10:11.058Z,17.98
2022-11-30T09:11:15.073Z,17.52
2022-11-30T09:12:11.058Z,18.62
2022-11-30T09:13:11.059Z,19.62
2022-11-30T09:14:11.068Z,17.14
2022-11-30T09:15:11.059Z,19.56
2022-11-30T09:16:11.175Z,18.64
2022-11-30T09:17:11.067Z,18.38
2022-11-30T09:18:11.063Z,17.50
2022-11-30T09:19:11.057Z,17.34
2022-11-30T09:20:11.062Z,21.10
2022-11-30T09:21:11.060Z,16.38
2022-11-30T09:22:11.058Z,17.42
2022-11-30T09:23:11.059Z,17.28
2022-11-30T09:24:11.067Z,17.44
2022-11-30T09:25:11.059Z,18.08
2022-11-30T09:26:11.063Z,18.98
2022-11-30T09:27:11.064Z,18.92
2022-11-30T09:28:12.485Z,16.98
2022-11-30T09:29:11.062Z,18.16
2022-11-30T09:30:11.070Z,17.16
2022-11-30T09:31:12.097Z,18.78
2022-11-30T09:32:11.065Z,16.64
2022-11-30T09:33:11.068Z,16.06
2022-11-30T09:34:12.134Z,17.30
2022-11-30T09:35:12.901Z,19.32
2022-11-30T09:36:11.064Z,18.10
2022-11-30T09:37:11.062Z,17.54
2022-11-30T09:38:11.063Z,18.42
2022-11-30T09:39:11.069Z,18.30
2022-11-30T09:40:11.063Z,20.66
2022-11-30T09:41:19.058Z,18.46
2022-11-30T09:42:19.063Z,18.94
2022-11-30T09:43:21.069Z,18.68
2022-11-30T09:44:19.064Z,17.42
2022-11-30T09:45:18.064Z,16.30
2022-11-30T09:46:11.111Z,17.32
2022-11-30T09:47:19.065Z,16.60
2022-11-30T09:48:19.075Z,17.26
2022-11-30T09:49:21.063Z,16.66
2022-11-30T09:50:15.093Z,17.14
2022-11-30T09:51:17.066Z,17.72
2022-11-30T09:52:18.064Z,16.54
2022-11-30T09:53:21.155Z,15.96
2022-11-30T09:54:23.396Z,15.78
2022-11-30T09:55:11.062Z,16.46
2022-11-30T09:56:19.066Z,15.26
2022-11-30T09:57:19.070Z,15.22
2022-11-30T09:58:17.066Z,15.62
2022-11-30T09:59:20.063Z,13.42
2022-11-30T10:00:17.088Z,14.10
2022-11-30T10:01:18.156Z,16.72
2022-11-30T10:02:15.244Z,12.52
2022-11-30T10:03:12.151Z,13.38
2022-11-30T10:04:19.069Z,16.08
2022-11-30T10:05:20.068Z,15.68
2022-11-30T10:06:16.075Z,14.38
2022-11-30T10:07:19.142Z,14.96
2022-11-30T10:08:19.069Z,15.30
2022-11-30T10:09:19.077Z,14.26
2022-11-30T10:10:32.984Z,17.22
2022-11-30T10:11:23.056Z,14.84
2022-11-30T10:12:19.067Z,14.46
2022-11-30T10:13:21.068Z,16.90
2022-11-30T10:14:19.067Z,15.16
2022-11-30T10:15:21.068Z,15.76
2022-11-30T10:16:19.154Z,15.48
2022-11-30T10:17:19.066Z,16.42
2022-11-30T10:18:19.064Z,15.54
2022-11-30T10:19:19.069Z,14.74
2022-11-30T10:20:19.068Z,16.08
2022-11-30T10:21:18.077Z,15.38
2022-11-30T10:22:19.066Z,14.54
2022-11-30T10:23:23.065Z,16.12
2022-11-30T10:24:19.272Z,15.76
2022-11-30T10:25:18.068Z,14.20
2022-11-30T10:26:19.067Z,15.94
2022-11-30T10:27:17.072Z,15.12
2022-11-30T10:28:45.716Z,14.84
2022-11-30T10:29:21.051Z,16.04
2022-11-30T10:30:16.112Z,14.34
2022-11-30T10:31:13.168Z,18.08
2022-11-30T10:32:19.064Z,15.40
2022-11-30T10:33:17.066Z,14.42
2022-11-30T10:34:19.081Z,14.56
2022-11-30T10:35:19.067Z,15.78
2022-11-30T10:36:21.068Z,16.52
2022-11-30T10:37:19.070Z,15.08
2022-11-30T10:38:18.066Z,14.32
2022-11-30T10:39:21.074Z,17.42
2022-11-30T10:40:17.066Z,17.04
2022-11-30T10:41:19.066Z,15.58
2022-11-30T10:42:19.070Z,17.04
2022-11-30T10:43:19.069Z,15.04
2022-11-30T10:44:19.069Z,14.40
2022-11-30T10:45:13.067Z,15.72
2022-11-30T10:46:19.139Z,15.72
2022-11-30T10:47:19.068Z,14.48
2022-11-30T10:48:19.076Z,15.34
2022-11-30T10:49:15.068Z,14.74
2022-11-30T10:50:15.067Z,15.52
2022-11-30T10:51:12.069Z,12.92
2022-11-30T10:52:12.074Z,13.46
2022-11-30T10:53:13.070Z,13.66
2022-11-30T10:54:15.066Z,13.58
2022-11-30T10:55:19.071Z,14.80
2022-11-30T10:56:12.083Z,11.58
2022-11-30T10:57:11.068Z,10.86
2022-11-30T10:58:23.069Z,10.98
2022-11-30T10:59:21.070Z,13.32
2022-11-30T11:00:14.101Z,12.68
2022-11-30T11:01:15.171Z,12.24
2022-11-30T11:02:19.086Z,12.60
2022-11-30T11:03:19.069Z,12.98
2022-11-30T11:04:19.193Z,12.98
2022-11-30T11:05:15.075Z,11.64
2022-11-30T11:06:16.066Z,12.20
2022-11-30T11:07:13.132Z,11.42
2022-11-30T11:08:17.129Z,11.56
2022-11-30T11:09:19.069Z,11.58
2022-11-30T11:10:16.067Z,11.28
2022-11-30T11:11:19.066Z,11.28
2022-11-30T11:12:19.070Z,12.40
2022-11-30T11:13:16.078Z,12.76
2022-11-30T11:14:19.071Z,11.38
2022-11-30T11:15:15.073Z,10.74
2022-11-30T11:16:11.134Z,12.08
2022-11-30T11:17:19.087Z,11.86
2022-11-30T11:18:19.094Z,11.30
2022-11-30T11:19:19.069Z,12.36
2022-11-30T11:20:21.072Z,11.54
2022-11-30T11:21:18.072Z,12.10
2022-11-30T11:22:16.077Z,12.22
2022-11-30T11:23:21.068Z,13.24
2022-11-30T11:24:11.070Z,12.44
2022-11-30T11:25:19.071Z,11.12
2022-11-30T11:26:18.086Z,11.94
2022-11-30T11:27:19.075Z,12.32
2022-11-30T11:28:15.072Z,9.50
2022-11-30T11:29:19.073Z,10.96
2022-11-30T11:30:19.073Z,11.22
2022-11-30T11:31:21.123Z,12.04
2022-11-30T11:32:18.073Z,15.56
2022-11-30T11:33:20.071Z,11.44
2022-11-30T11:34:20.072Z,10.60
2022-11-30T11:35:19.074Z,11.26
2022-11-30T11:36:15.079Z,10.18
2022-11-30T11:37:17.073Z,11.46
2022-11-30T11:38:19.068Z,10.30
2022-11-30T11:39:19.072Z,10.46
2022-11-30T11:40:15.080Z,10.50
2022-11-30T11:41:21.073Z,10.30
2022-11-30T11:42:20.614Z,9.20
2022-11-30T11:43:18.097Z,9.36
2022-11-30T11:44:20.074Z,11.24
2022-11-30T11:45:19.080Z,8.86
2022-11-30T11:46:16.122Z,10.60
2022-11-30T11:47:21.072Z,9.66
2022-11-30T11:48:19.061Z,9.74
2022-11-30T11:49:19.059Z,10.52
2022-11-30T11:50:31.796Z,10.12
2022-11-30T11:51:13.049Z,10.26
2022-11-30T11:52:17.057Z,9.84
2022-11-30T11:53:16.080Z,9.64
2022-11-30T11:54:19.159Z,9.46
2022-11-30T11:55:17.060Z,9.14
2022-11-30T11:56:19.060Z,9.48
2022-11-30T11:57:15.059Z,10.46
2022-11-30T11:58:16.070Z,10.82
2022-11-30T11:59:25.779Z,9.64
2022-11-30T12:00:21.049Z,9.42
2022-11-30T12:01:39.426Z,9.24
2022-11-30T12:02:21.085Z,9.24
2022-11-30T12:03:19.069Z,9.12
2022-11-30T12:04:21.128Z,10.78
2022-11-30T12:05:19.063Z,9.40
2022-11-30T12:06:15.064Z,11.10
2022-11-30T12:07:21.120Z,10.86
2022-11-30T12:08:19.063Z,10.50
2022-11-30T12:09:16.069Z,10.06
2022-11-30T12:10:49.944Z,9.50
2022-11-30T12:11:16.040Z,10.88
2022-11-30T12:12:14.076Z,10.98
2022-11-30T12:13:17.069Z,9.88
2022-11-30T12:14:15.061Z,9.40
2022-11-30T12:15:13.060Z,11.12
2022-11-30T12:16:19.157Z,9.52
2022-11-30T12:17:19.074Z,10.48
2022-11-30T12:18:24.061Z,8.96
2022-11-30T12:19:19.059Z,10.48
2022-11-30T12:20:19.064Z,9.60
2022-11-30T12:21:21.065Z,9.22
2022-11-30T12:22:19.075Z,9.90
2022-11-30T12:23:19.065Z,9.12
2022-11-30T12:24:19.070Z,9.10
2022-11-30T12:25:19.064Z,8.48
2022-11-30T12:26:21.062Z,8.28
2022-11-30T12:27:19.071Z,9.54
2022-11-30T12:28:19.066Z,9.86
2022-11-30T12:29:19.060Z,8.64
2022-11-30T12:30:23.067Z,9.48
2022-11-30T12:31:16.199Z,8.36
2022-11-30T12:32:21.064Z,8.48
2022-11-30T12:33:19.063Z,11.14
2022-11-30T12:34:19.068Z,9.72
2022-11-30T12:35:21.067Z,13.02
2022-11-30T12:36:19.066Z,9.20
2022-11-30T12:37:23.073Z,10.52
2022-11-30T12:38:19.064Z,11.28
2022-11-30T12:39:15.064Z,10.52
2022-11-30T12:40:19.067Z,10.36
2022-11-30T12:41:19.067Z,9.28
2022-11-30T12:42:21.072Z,9.04
2022-11-30T12:43:19.065Z,9.32
2022-11-30T12:44:19.063Z,9.16
2022-11-30T12:45:23.067Z,10.82
2022-11-30T12:46:19.148Z,10.56
2022-11-30T12:47:19.075Z,11.42
2022-11-30T12:48:19.067Z,11.38
2022-11-30T12:49:19.227Z,9.26
2022-11-30T12:50:20.067Z,7.72
2022-11-30T12:51:19.072Z,8.94
2022-11-30T12:52:19.071Z,8.86
2022-11-30T12:53:19.062Z,7.60
2022-11-30T12:54:23.067Z,8.78